sensor_id;sensor_type;location;lat;lon;timestamp;P1;durP1;ratioP1;P2;durP2;ratioP2
20982;SDS011;10650;51.528;6.748;2023-02-04T00:00:24;20.95;;;5.20;;
20982;SDS011;10650;51.528;6.748;2023-02-04T00:02:52;27.98;;;5.45;;
20982;SDS011;10650;51.528;6.748;2023-02-04T00:05:20;23.80;;;5.30;;
20982;SDS011;10650;51.528;6.748;2023-02-04T00:07:48;27.13;;;5.40;;
20982;SDS011;10650;51.528;6.748;2023-02-04T00:10:17;21.38;;;5.43;;
20982;SDS011;10650;51.528;6.748;2023-02-04T00:12:45;25.27;;;5.97;;
20982;SDS011;10650;51.528;6.748;2023-02-04T00:15:12;27.65;;;6.07;;
20982;SDS011;10650;51.528;6.748;2023-02-04T00:17:40;26.25;;;6.10;;
20982;SDS011;10650;51.528;6.748;2023-02-04T00:20:08;20.38;;;5.38;;
20982;SDS011;10650;51.528;6.748;2023-02-04T00:22:36;26.77;;;5.65;;
20982;SDS011;10650;51.528;6.748;2023-02-04T00:25:05;26.08;;;5.40;;
20982;SDS011;10650;51.528;6.748;2023-02-04T00:27:34;25.45;;;5.72;;
20982;SDS011;10650;51.528;6.748;2023-02-04T00:30:02;23.20;;;5.10;;
20982;SDS011;10650;51.528;6.748;2023-02-04T00:32:30;21.88;;;5.57;;
20982;SDS011;10650;51.528;6.748;2023-02-04T00:34:58;21.85;;;5.60;;
20982;SDS011;10650;51.528;6.748;2023-02-04T00:37:26;28.70;;;5.85;;
20982;SDS011;10650;51.528;6.748;2023-02-04T00:39:54;25.95;;;6.00;;
20982;SDS011;10650;51.528;6.748;2023-02-04T00:42:22;26.10;;;5.88;;
20982;SDS011;10650;51.528;6.748;2023-02-04T00:44:52;25.65;;;5.68;;
20982;SDS011;10650;51.528;6.748;2023-02-04T00:47:19;26.52;;;5.60;;
20982;SDS011;10650;51.528;6.748;2023-02-04T00:49:47;22.73;;;5.70;;
20982;SDS011;10650;51.528;6.748;2023-02-04T00:52:15;25.35;;;6.18;;
20982;SDS011;10650;51.528;6.748;2023-02-04T00:54:43;23.25;;;5.75;;
20982;SDS011;10650;51.528;6.748;2023-02-04T00:57:10;23.40;;;5.70;;
20982;SDS011;10650;51.528;6.748;2023-02-04T00:59:38;22.60;;;5.72;;
20982;SDS011;10650;51.528;6.748;2023-02-04T01:02:07;22.83;;;5.15;;
20982;SDS011;10650;51.528;6.748;2023-02-04T01:04:35;24.63;;;5.38;;
20982;SDS011;10650;51.528;6.748;2023-02-04T01:07:03;30.08;;;6.07;;
20982;SDS011;10650;51.528;6.748;2023-02-04T01:09:30;28.45;;;5.72;;
20982;SDS011;10650;51.528;6.748;2023-02-04T01:11:59;26.15;;;5.40;;
20982;SDS011;10650;51.528;6.748;2023-02-04T01:14:26;22.02;;;5.10;;
20982;SDS011;10650;51.528;6.748;2023-02-04T01:16:54;29.63;;;5.57;;
20982;SDS011;10650;51.528;6.748;2023-02-04T01:19:23;24.23;;;5.57;;
20982;SDS011;10650;51.528;6.748;2023-02-04T01:21:51;26.38;;;5.65;;
20982;SDS011;10650;51.528;6.748;2023-02-04T01:24:19;26.63;;;5.28;;
20982;SDS011;10650;51.528;6.748;2023-02-04T01:26:47;25.30;;;6.05;;
20982;SDS011;10650;51.528;6.748;2023-02-04T01:29:14;21.63;;;5.47;;
20982;SDS011;10650;51.528;6.748;2023-02-04T01:31:42;24.95;;;5.55;;
20982;SDS011;10650;51.528;6.748;2023-02-04T01:34:10;24.08;;;5.35;;
20982;SDS011;10650;51.528;6.748;2023-02-04T01:36:39;24.15;;;5.57;;
20982;SDS011;10650;51.528;6.748;2023-02-04T01:39:07;23.35;;;5.55;;
20982;SDS011;10650;51.528;6.748;2023-02-04T01:41:34;19.45;;;5.57;;
20982;SDS011;10650;51.528;6.748;2023-02-04T01:44:02;21.73;;;4.90;;
20982;SDS011;10650;51.528;6.748;2023-02-04T01:46:30;26.30;;;5.35;;
20982;SDS011;10650;51.528;6.748;2023-02-04T01:48:59;24.88;;;5.75;;
20982;SDS011;10650;51.528;6.748;2023-02-04T01:51:27;29.35;;;5.72;;
20982;SDS011;10650;51.528;6.748;2023-02-04T01:53:58;30.00;;;5.97;;
20982;SDS011;10650;51.528;6.748;2023-02-04T01:56:26;24.50;;;5.75;;
20982;SDS011;10650;51.528;6.748;2023-02-04T01:58:56;24.80;;;5.47;;
20982;SDS011;10650;51.528;6.748;2023-02-04T02:01:34;24.88;;;5.82;;
20982;SDS011;10650;51.528;6.748;2023-02-04T02:04:04;25.52;;;5.05;;
20982;SDS011;10650;51.528;6.748;2023-02-04T02:06:32;23.30;;;5.80;;
20982;SDS011;10650;51.528;6.748;2023-02-04T02:09:02;24.48;;;5.03;;
20982;SDS011;10650;51.528;6.748;2023-02-04T02:11:30;25.98;;;5.38;;
20982;SDS011;10650;51.528;6.748;2023-02-04T02:13:59;22.23;;;5.22;;
20982;SDS011;10650;51.528;6.748;2023-02-04T02:16:27;25.98;;;5.72;;
20982;SDS011;10650;51.528;6.748;2023-02-04T02:18:55;24.60;;;5.53;;
20982;SDS011;10650;51.528;6.748;2023-02-04T02:21:28;28.27;;;5.57;;
20982;SDS011;10650;51.528;6.748;2023-02-04T02:24:04;24.85;;;5.75;;
20982;SDS011;10650;51.528;6.748;2023-02-04T02:26:51;23.35;;;5.45;;
20982;SDS011;10650;51.528;6.748;2023-02-04T02:29:19;24.55;;;4.97;;
20982;SDS011;10650;51.528;6.748;2023-02-04T02:31:48;23.98;;;5.05;;
20982;SDS011;10650;51.528;6.748;2023-02-04T02:34:16;25.25;;;4.88;;
20982;SDS011;10650;51.528;6.748;2023-02-04T02:36:44;30.40;;;5.90;;
20982;SDS011;10650;51.528;6.748;2023-02-04T02:39:13;25.30;;;5.22;;
20982;SDS011;10650;51.528;6.748;2023-02-04T02:41:41;25.40;;;5.75;;
20982;SDS011;10650;51.528;6.748;2023-02-04T02:44:09;22.73;;;5.78;;
20982;SDS011;10650;51.528;6.748;2023-02-04T02:46:38;28.58;;;6.45;;
20982;SDS011;10650;51.528;6.748;2023-02-04T02:49:07;24.15;;;5.53;;
20982;SDS011;10650;51.528;6.748;2023-02-04T02:51:40;20.88;;;5.22;;
20982;SDS011;10650;51.528;6.748;2023-02-04T02:54:12;31.80;;;5.35;;
20982;SDS011;10650;51.528;6.748;2023-02-04T02:56:46;24.70;;;5.18;;
20982;SDS011;10650;51.528;6.748;2023-02-04T02:59:14;22.88;;;5.22;;
20982;SDS011;10650;51.528;6.748;2023-02-04T03:01:43;25.30;;;5.65;;
20982;SDS011;10650;51.528;6.748;2023-02-04T03:04:13;25.92;;;5.72;;
20982;SDS011;10650;51.528;6.748;2023-02-04T03:06:42;26.63;;;5.43;;
20982;SDS011;10650;51.528;6.748;2023-02-04T03:09:10;27.60;;;5.63;;
20982;SDS011;10650;51.528;6.748;2023-02-04T03:11:39;21.08;;;5.40;;
20982;SDS011;10650;51.528;6.748;2023-02-04T03:14:07;23.13;;;5.35;;
20982;SDS011;10650;51.528;6.748;2023-02-04T03:16:35;24.50;;;5.20;;
20982;SDS011;10650;51.528;6.748;2023-02-04T03:19:05;21.13;;;4.93;;
20982;SDS011;10650;51.528;6.748;2023-02-04T03:21:34;30.10;;;5.93;;
20982;SDS011;10650;51.528;6.748;2023-02-04T03:24:03;28.60;;;6.35;;
20982;SDS011;10650;51.528;6.748;2023-02-04T03:26:31;24.30;;;4.97;;
20982;SDS011;10650;51.528;6.748;2023-02-04T03:29:01;24.35;;;5.50;;
20982;SDS011;10650;51.528;6.748;2023-02-04T03:31:28;25.50;;;5.97;;
20982;SDS011;10650;51.528;6.748;2023-02-04T03:33:56;29.83;;;5.55;;
20982;SDS011;10650;51.528;6.748;2023-02-04T03:36:24;24.20;;;5.15;;
20982;SDS011;10650;51.528;6.748;2023-02-04T03:38:52;26.60;;;6.03;;
20982;SDS011;10650;51.528;6.748;2023-02-04T03:41:20;28.17;;;5.38;;
20982;SDS011;10650;51.528;6.748;2023-02-04T03:43:47;27.52;;;5.38;;
20982;SDS011;10650;51.528;6.748;2023-02-04T03:46:16;30.08;;;6.15;;
20982;SDS011;10650;51.528;6.748;2023-02-04T03:48:44;29.95;;;6.10;;
20982;SDS011;10650;51.528;6.748;2023-02-04T03:51:12;24.80;;;5.28;;
20982;SDS011;10650;51.528;6.748;2023-02-04T03:53:40;24.42;;;5.60;;
20982;SDS011;10650;51.528;6.748;2023-02-04T03:56:07;26.77;;;5.57;;
20982;SDS011;10650;51.528;6.748;2023-02-04T03:58:36;20.90;;;5.68;;
20982;SDS011;10650;51.528;6.748;2023-02-04T04:01:03;28.55;;;5.43;;
20982;SDS011;10650;51.528;6.748;2023-02-04T04:03:33;25.15;;;5.30;;
20982;SDS011;10650;51.528;6.748;2023-02-04T04:06:01;27.30;;;5.15;;
20982;SDS011;10650;51.528;6.748;2023-02-04T04:08:31;25.95;;;6.00;;
20982;SDS011;10650;51.528;6.748;2023-02-04T04:10:59;25.33;;;5.95;;
20982;SDS011;10650;51.528;6.748;2023-02-04T04:13:27;29.00;;;5.57;;
20982;SDS011;10650;51.528;6.748;2023-02-04T04:15:55;26.08;;;5.32;;
20982;SDS011;10650;51.528;6.748;2023-02-04T04:18:22;29.40;;;5.55;;
20982;SDS011;10650;51.528;6.748;2023-02-04T04:20:51;27.45;;;5.28;;
20982;SDS011;10650;51.528;6.748;2023-02-04T04:23:19;23.95;;;5.55;;
20982;SDS011;10650;51.528;6.748;2023-02-04T04:25:47;24.05;;;5.22;;
20982;SDS011;10650;51.528;6.748;2023-02-04T04:28:15;24.10;;;5.10;;
20982;SDS011;10650;51.528;6.748;2023-02-04T04:30:43;27.10;;;5.68;;
20982;SDS011;10650;51.528;6.748;2023-02-04T04:33:11;26.73;;;5.47;;
20982;SDS011;10650;51.528;6.748;2023-02-04T04:35:38;24.10;;;5.22;;
20982;SDS011;10650;51.528;6.748;2023-02-04T04:38:07;22.42;;;5.30;;
20982;SDS011;10650;51.528;6.748;2023-02-04T04:40:35;21.90;;;4.85;;
20982;SDS011;10650;51.528;6.748;2023-02-04T04:43:03;24.42;;;5.63;;
20982;SDS011;10650;51.528;6.748;2023-02-04T04:45:31;22.77;;;5.60;;
20982;SDS011;10650;51.528;6.748;2023-02-04T04:47:58;24.63;;;5.43;;
20982;SDS011;10650;51.528;6.748;2023-02-04T04:50:26;18.17;;;4.50;;
20982;SDS011;10650;51.528;6.748;2023-02-04T04:52:54;24.23;;;5.18;;
20982;SDS011;10650;51.528;6.748;2023-02-04T04:55:23;18.95;;;4.63;;
20982;SDS011;10650;51.528;6.748;2023-02-04T04:57:51;25.52;;;5.70;;
20982;SDS011;10650;51.528;6.748;2023-02-04T05:00:19;26.58;;;5.60;;
20982;SDS011;10650;51.528;6.748;2023-02-04T05:02:47;20.58;;;5.15;;
20982;SDS011;10650;51.528;6.748;2023-02-04T05:05:15;21.65;;;5.43;;
20982;SDS011;10650;51.528;6.748;2023-02-04T05:07:43;24.67;;;5.57;;
20982;SDS011;10650;51.528;6.748;2023-02-04T05:10:11;27.88;;;5.78;;
20982;SDS011;10650;51.528;6.748;2023-02-04T05:12:40;23.48;;;5.93;;
20982;SDS011;10650;51.528;6.748;2023-02-04T05:15:08;23.05;;;5.80;;
20982;SDS011;10650;51.528;6.748;2023-02-04T05:17:36;20.02;;;5.30;;
20982;SDS011;10650;51.528;6.748;2023-02-04T05:20:04;22.63;;;5.25;;
20982;SDS011;10650;51.528;6.748;2023-02-04T05:22:32;17.30;;;4.95;;
20982;SDS011;10650;51.528;6.748;2023-02-04T05:24:59;21.88;;;5.93;;
20982;SDS011;10650;51.528;6.748;2023-02-04T05:27:27;22.10;;;5.72;;
20982;SDS011;10650;51.528;6.748;2023-02-04T05:29:56;18.83;;;5.90;;
20982;SDS011;10650;51.528;6.748;2023-02-04T05:32:24;30.60;;;7.13;;
20982;SDS011;10650;51.528;6.748;2023-02-04T05:34:52;30.08;;;6.53;;
20982;SDS011;10650;51.528;6.748;2023-02-04T05:37:19;19.27;;;5.63;;
20982;SDS011;10650;51.528;6.748;2023-02-04T05:39:47;26.48;;;6.40;;
20982;SDS011;10650;51.528;6.748;2023-02-04T05:42:15;24.55;;;6.00;;
20982;SDS011;10650;51.528;6.748;2023-02-04T05:44:43;29.35;;;6.30;;
20982;SDS011;10650;51.528;6.748;2023-02-04T05:47:12;24.90;;;6.50;;
20982;SDS011;10650;51.528;6.748;2023-02-04T05:49:40;22.70;;;5.85;;
20982;SDS011;10650;51.528;6.748;2023-02-04T05:52:08;23.77;;;6.10;;
20982;SDS011;10650;51.528;6.748;2023-02-04T05:54:35;32.53;;;6.35;;
20982;SDS011;10650;51.528;6.748;2023-02-04T05:57:03;23.40;;;6.57;;
20982;SDS011;10650;51.528;6.748;2023-02-04T05:59:31;23.67;;;6.15;;
20982;SDS011;10650;51.528;6.748;2023-02-04T06:01:59;21.48;;;6.20;;
20982;SDS011;10650;51.528;6.748;2023-02-04T06:04:28;22.60;;;6.05;;
20982;SDS011;10650;51.528;6.748;2023-02-04T06:06:56;22.75;;;6.05;;
20982;SDS011;10650;51.528;6.748;2023-02-04T06:09:23;30.85;;;6.90;;
20982;SDS011;10650;51.528;6.748;2023-02-04T06:11:51;24.30;;;6.05;;
20982;SDS011;10650;51.528;6.748;2023-02-04T06:14:18;25.80;;;6.03;;
20982;SDS011;10650;51.528;6.748;2023-02-04T06:16:46;28.90;;;6.85;;
20982;SDS011;10650;51.528;6.748;2023-02-04T06:19:14;30.65;;;7.00;;
20982;SDS011;10650;51.528;6.748;2023-02-04T06:21:43;24.17;;;6.30;;
20982;SDS011;10650;51.528;6.748;2023-02-04T06:24:11;24.30;;;6.55;;
20982;SDS011;10650;51.528;6.748;2023-02-04T06:26:38;25.67;;;6.80;;
20982;SDS011;10650;51.528;6.748;2023-02-04T06:29:06;29.50;;;6.55;;
20982;SDS011;10650;51.528;6.748;2023-02-04T06:31:34;30.70;;;7.28;;
20982;SDS011;10650;51.528;6.748;2023-02-04T06:34:03;25.98;;;6.85;;
20982;SDS011;10650;51.528;6.748;2023-02-04T06:36:31;24.50;;;6.55;;
20982;SDS011;10650;51.528;6.748;2023-02-04T06:39:00;25.10;;;6.93;;
20982;SDS011;10650;51.528;6.748;2023-02-04T06:41:28;26.63;;;6.70;;
20982;SDS011;10650;51.528;6.748;2023-02-04T06:43:56;21.42;;;6.47;;
20982;SDS011;10650;51.528;6.748;2023-02-04T06:46:23;19.65;;;6.40;;
20982;SDS011;10650;51.528;6.748;2023-02-04T06:48:51;24.58;;;6.95;;
20982;SDS011;10650;51.528;6.748;2023-02-04T06:51:19;21.05;;;6.20;;
20982;SDS011;10650;51.528;6.748;2023-02-04T06:53:46;22.60;;;6.85;;
20982;SDS011;10650;51.528;6.748;2023-02-04T06:56:16;26.40;;;6.60;;
20982;SDS011;10650;51.528;6.748;2023-02-04T06:58:43;25.42;;;6.45;;
20982;SDS011;10650;51.528;6.748;2023-02-04T07:01:11;27.38;;;6.75;;
20982;SDS011;10650;51.528;6.748;2023-02-04T07:03:39;27.38;;;6.53;;
20982;SDS011;10650;51.528;6.748;2023-02-04T07:06:06;21.30;;;6.05;;
20982;SDS011;10650;51.528;6.748;2023-02-04T07:08:34;33.13;;;6.93;;
20982;SDS011;10650;51.528;6.748;2023-02-04T07:11:02;25.63;;;6.75;;
20982;SDS011;10650;51.528;6.748;2023-02-04T07:13:31;28.20;;;6.07;;
20982;SDS011;10650;51.528;6.748;2023-02-04T07:15:59;29.45;;;6.18;;
20982;SDS011;10650;51.528;6.748;2023-02-04T07:18:26;20.27;;;5.93;;
20982;SDS011;10650;51.528;6.748;2023-02-04T07:20:54;22.42;;;6.18;;
20982;SDS011;10650;51.528;6.748;2023-02-04T07:23:22;22.77;;;6.28;;
20982;SDS011;10650;51.528;6.748;2023-02-04T07:25:50;23.25;;;5.93;;
20982;SDS011;10650;51.528;6.748;2023-02-04T07:28:19;23.30;;;6.40;;
20982;SDS011;10650;51.528;6.748;2023-02-04T07:30:48;31.30;;;7.32;;
20982;SDS011;10650;51.528;6.748;2023-02-04T07:33:15;32.20;;;7.80;;
20982;SDS011;10650;51.528;6.748;2023-02-04T07:35:43;25.52;;;7.57;;
20982;SDS011;10650;51.528;6.748;2023-02-04T07:38:11;24.95;;;8.02;;
20982;SDS011;10650;51.528;6.748;2023-02-04T07:40:39;34.10;;;8.60;;
20982;SDS011;10650;51.528;6.748;2023-02-04T07:43:06;34.15;;;8.63;;
20982;SDS011;10650;51.528;6.748;2023-02-04T07:45:34;27.45;;;7.78;;
20982;SDS011;10650;51.528;6.748;2023-02-04T07:48:04;29.55;;;7.25;;
20982;SDS011;10650;51.528;6.748;2023-02-04T07:50:32;24.10;;;7.30;;
20982;SDS011;10650;51.528;6.748;2023-02-04T07:53:00;31.70;;;7.65;;
20982;SDS011;10650;51.528;6.748;2023-02-04T07:55:28;24.52;;;6.80;;
20982;SDS011;10650;51.528;6.748;2023-02-04T07:57:56;26.27;;;7.07;;
20982;SDS011;10650;51.528;6.748;2023-02-04T08:00:23;34.53;;;8.15;;
20982;SDS011;10650;51.528;6.748;2023-02-04T08:02:51;25.83;;;6.82;;
20982;SDS011;10650;51.528;6.748;2023-02-04T08:05:20;24.45;;;6.78;;
20982;SDS011;10650;51.528;6.748;2023-02-04T08:07:50;27.45;;;7.10;;
20982;SDS011;10650;51.528;6.748;2023-02-04T08:10:20;27.63;;;7.32;;
20982;SDS011;10650;51.528;6.748;2023-02-04T08:12:48;30.17;;;7.43;;
20982;SDS011;10650;51.528;6.748;2023-02-04T08:15:15;23.05;;;6.50;;
20982;SDS011;10650;51.528;6.748;2023-02-04T08:17:43;26.73;;;7.25;;
20982;SDS011;10650;51.528;6.748;2023-02-04T08:20:11;28.27;;;6.57;;
20982;SDS011;10650;51.528;6.748;2023-02-04T08:22:40;27.90;;;7.05;;
20982;SDS011;10650;51.528;6.748;2023-02-04T08:25:08;26.50;;;6.70;;
20982;SDS011;10650;51.528;6.748;2023-02-04T08:27:36;27.02;;;6.45;;
20982;SDS011;10650;51.528;6.748;2023-02-04T08:30:05;28.52;;;7.20;;
20982;SDS011;10650;51.528;6.748;2023-02-04T08:32:33;30.73;;;7.53;;
20982;SDS011;10650;51.528;6.748;2023-02-04T08:35:01;25.60;;;6.93;;
20982;SDS011;10650;51.528;6.748;2023-02-04T08:37:31;29.77;;;7.55;;
20982;SDS011;10650;51.528;6.748;2023-02-04T08:40:00;29.45;;;7.20;;
20982;SDS011;10650;51.528;6.748;2023-02-04T08:42:28;24.63;;;6.13;;
20982;SDS011;10650;51.528;6.748;2023-02-04T08:44:56;28.95;;;6.70;;
20982;SDS011;10650;51.528;6.748;2023-02-04T08:47:24;23.55;;;6.80;;
20982;SDS011;10650;51.528;6.748;2023-02-04T08:49:52;33.22;;;7.65;;
20982;SDS011;10650;51.528;6.748;2023-02-04T08:52:20;27.27;;;6.45;;
20982;SDS011;10650;51.528;6.748;2023-02-04T08:54:48;26.48;;;7.47;;
20982;SDS011;10650;51.528;6.748;2023-02-04T08:57:17;31.25;;;6.82;;
20982;SDS011;10650;51.528;6.748;2023-02-04T08:59:44;28.35;;;7.05;;
20982;SDS011;10650;51.528;6.748;2023-02-04T09:02:12;30.55;;;7.03;;
20982;SDS011;10650;51.528;6.748;2023-02-04T09:04:40;32.40;;;7.70;;
20982;SDS011;10650;51.528;6.748;2023-02-04T09:07:08;30.35;;;7.25;;
20982;SDS011;10650;51.528;6.748;2023-02-04T09:09:36;34.08;;;7.80;;
20982;SDS011;10650;51.528;6.748;2023-02-04T09:12:03;32.95;;;7.15;;
20982;SDS011;10650;51.528;6.748;2023-02-04T09:14:32;28.95;;;6.70;;
20982;SDS011;10650;51.528;6.748;2023-02-04T09:17:00;33.25;;;7.07;;
20982;SDS011;10650;51.528;6.748;2023-02-04T09:19:29;28.70;;;7.45;;
20982;SDS011;10650;51.528;6.748;2023-02-04T09:21:57;27.77;;;6.97;;
20982;SDS011;10650;51.528;6.748;2023-02-04T09:24:24;28.42;;;7.03;;
20982;SDS011;10650;51.528;6.748;2023-02-04T09:26:52;26.67;;;6.30;;
20982;SDS011;10650;51.528;6.748;2023-02-04T09:29:20;32.58;;;7.72;;
20982;SDS011;10650;51.528;6.748;2023-02-04T09:31:49;28.70;;;6.63;;
20982;SDS011;10650;51.528;6.748;2023-02-04T09:34:17;33.90;;;7.20;;
20982;SDS011;10650;51.528;6.748;2023-02-04T09:36:45;27.48;;;6.72;;
20982;SDS011;10650;51.528;6.748;2023-02-04T09:39:12;27.58;;;7.20;;
20982;SDS011;10650;51.528;6.748;2023-02-04T09:41:40;24.95;;;6.57;;
20982;SDS011;10650;51.528;6.748;2023-02-04T09:44:09;27.85;;;6.95;;
20982;SDS011;10650;51.528;6.748;2023-02-04T09:46:41;30.67;;;7.22;;
20982;SDS011;10650;51.528;6.748;2023-02-04T09:49:14;30.73;;;6.97;;
20982;SDS011;10650;51.528;6.748;2023-02-04T09:51:42;32.00;;;8.23;;
20982;SDS011;10650;51.528;6.748;2023-02-04T09:54:12;34.92;;;7.68;;
20982;SDS011;10650;51.528;6.748;2023-02-04T09:56:42;40.13;;;7.88;;
20982;SDS011;10650;51.528;6.748;2023-02-04T09:59:11;37.17;;;7.95;;
20982;SDS011;10650;51.528;6.748;2023-02-04T10:01:40;30.67;;;6.97;;
20982;SDS011;10650;51.528;6.748;2023-02-04T10:04:08;31.98;;;7.15;;
20982;SDS011;10650;51.528;6.748;2023-02-04T10:06:40;28.25;;;7.13;;
20982;SDS011;10650;51.528;6.748;2023-02-04T10:09:09;36.30;;;8.80;;
20982;SDS011;10650;51.528;6.748;2023-02-04T10:11:38;35.30;;;8.80;;
20982;SDS011;10650;51.528;6.748;2023-02-04T10:14:08;28.55;;;7.13;;
20982;SDS011;10650;51.528;6.748;2023-02-04T10:16:40;34.08;;;7.35;;
20982;SDS011;10650;51.528;6.748;2023-02-04T10:19:11;31.75;;;7.50;;
20982;SDS011;10650;51.528;6.748;2023-02-04T10:21:42;30.98;;;7.68;;
20982;SDS011;10650;51.528;6.748;2023-02-04T10:24:12;28.38;;;7.32;;
20982;SDS011;10650;51.528;6.748;2023-02-04T10:26:42;33.88;;;7.90;;
20982;SDS011;10650;51.528;6.748;2023-02-04T10:29:14;30.00;;;8.07;;
20982;SDS011;10650;51.528;6.748;2023-02-04T10:31:43;39.25;;;7.97;;
20982;SDS011;10650;51.528;6.748;2023-02-04T10:34:13;39.50;;;8.25;;
20982;SDS011;10650;51.528;6.748;2023-02-04T10:36:46;32.85;;;7.68;;
20982;SDS011;10650;51.528;6.748;2023-02-04T10:39:15;34.47;;;7.57;;
20982;SDS011;10650;51.528;6.748;2023-02-04T10:41:46;33.17;;;7.72;;
20982;SDS011;10650;51.528;6.748;2023-02-04T10:44:16;34.75;;;7.93;;
20982;SDS011;10650;51.528;6.748;2023-02-04T10:46:46;38.28;;;8.32;;
20982;SDS011;10650;51.528;6.748;2023-02-04T10:49:18;36.50;;;7.30;;
20982;SDS011;10650;51.528;6.748;2023-02-04T10:51:50;28.10;;;7.15;;
20982;SDS011;10650;51.528;6.748;2023-02-04T10:54:19;30.70;;;7.40;;
20982;SDS011;10650;51.528;6.748;2023-02-04T10:56:58;35.40;;;7.93;;
20982;SDS011;10650;51.528;6.748;2023-02-04T10:59:27;30.73;;;7.85;;
20982;SDS011;10650;51.528;6.748;2023-02-04T11:01:55;37.55;;;7.80;;
20982;SDS011;10650;51.528;6.748;2023-02-04T11:04:25;31.40;;;7.82;;
20982;SDS011;10650;51.528;6.748;2023-02-04T11:06:55;33.45;;;7.72;;
20982;SDS011;10650;51.528;6.748;2023-02-04T11:09:23;37.55;;;8.07;;
20982;SDS011;10650;51.528;6.748;2023-02-04T11:11:51;31.73;;;7.95;;
20982;SDS011;10650;51.528;6.748;2023-02-04T11:14:23;31.92;;;7.45;;
20982;SDS011;10650;51.528;6.748;2023-02-04T11:16:53;33.58;;;8.07;;
20982;SDS011;10650;51.528;6.748;2023-02-04T11:19:30;31.85;;;7.65;;
20982;SDS011;10650;51.528;6.748;2023-02-04T11:22:18;36.80;;;8.60;;
20982;SDS011;10650;51.528;6.748;2023-02-04T11:24:49;29.17;;;7.93;;
20982;SDS011;10650;51.528;6.748;2023-02-04T11:27:19;30.90;;;8.48;;
20982;SDS011;10650;51.528;6.748;2023-02-04T11:29:50;30.13;;;8.23;;
20982;SDS011;10650;51.528;6.748;2023-02-04T11:32:31;30.85;;;8.45;;
20982;SDS011;10650;51.528;6.748;2023-02-04T11:35:06;35.90;;;8.50;;
20982;SDS011;10650;51.528;6.748;2023-02-04T11:37:49;34.28;;;10.00;;
20982;SDS011;10650;51.528;6.748;2023-02-04T11:40:20;32.22;;;13.18;;
20982;SDS011;10650;51.528;6.748;2023-02-04T11:42:57;38.58;;;15.02;;
20982;SDS011;10650;51.528;6.748;2023-02-04T11:45:27;45.53;;;15.95;;
20982;SDS011;10650;51.528;6.748;2023-02-04T11:47:59;34.58;;;13.23;;
20982;SDS011;10650;51.528;6.748;2023-02-04T11:50:29;35.58;;;13.55;;
20982;SDS011;10650;51.528;6.748;2023-02-04T11:53:00;35.25;;;12.60;;
20982;SDS011;10650;51.528;6.748;2023-02-04T11:55:28;42.05;;;12.73;;
20982;SDS011;10650;51.528;6.748;2023-02-04T11:57:58;39.83;;;13.65;;
20982;SDS011;10650;51.528;6.748;2023-02-04T12:00:27;41.90;;;12.60;;
20982;SDS011;10650;51.528;6.748;2023-02-04T12:02:57;41.42;;;12.98;;
20982;SDS011;10650;51.528;6.748;2023-02-04T12:05:40;47.47;;;13.50;;
20982;SDS011;10650;51.528;6.748;2023-02-04T12:08:11;38.20;;;12.80;;
20982;SDS011;10650;51.528;6.748;2023-02-04T12:10:46;41.63;;;13.77;;
20982;SDS011;10650;51.528;6.748;2023-02-04T12:13:16;39.25;;;13.52;;
20982;SDS011;10650;51.528;6.748;2023-02-04T12:15:51;40.33;;;13.65;;
20982;SDS011;10650;51.528;6.748;2023-02-04T12:18:21;41.13;;;14.43;;
20982;SDS011;10650;51.528;6.748;2023-02-04T12:20:49;44.42;;;14.32;;
20982;SDS011;10650;51.528;6.748;2023-02-04T12:23:18;49.60;;;15.70;;
20982;SDS011;10650;51.528;6.748;2023-02-04T12:25:46;32.50;;;10.25;;
20982;SDS011;10650;51.528;6.748;2023-02-04T12:28:14;40.03;;;11.48;;
20982;SDS011;10650;51.528;6.748;2023-02-04T12:30:42;38.35;;;12.60;;
20982;SDS011;10650;51.528;6.748;2023-02-04T12:33:10;33.83;;;11.30;;
20982;SDS011;10650;51.528;6.748;2023-02-04T12:35:40;34.72;;;11.45;;
20982;SDS011;10650;51.528;6.748;2023-02-04T12:38:08;29.52;;;9.98;;
20982;SDS011;10650;51.528;6.748;2023-02-04T12:40:37;33.17;;;10.10;;
20982;SDS011;10650;51.528;6.748;2023-02-04T12:43:05;30.45;;;7.15;;
20982;SDS011;10650;51.528;6.748;2023-02-04T12:45:33;32.78;;;8.55;;
20982;SDS011;10650;51.528;6.748;2023-02-04T12:48:01;32.70;;;8.38;;
20982;SDS011;10650;51.528;6.748;2023-02-04T12:50:29;29.75;;;7.93;;
20982;SDS011;10650;51.528;6.748;2023-02-04T12:52:57;31.27;;;8.05;;
20982;SDS011;10650;51.528;6.748;2023-02-04T12:55:26;33.17;;;7.25;;
20982;SDS011;10650;51.528;6.748;2023-02-04T12:57:56;26.02;;;6.38;;
20982;SDS011;10650;51.528;6.748;2023-02-04T13:00:24;32.17;;;6.93;;
20982;SDS011;10650;51.528;6.748;2023-02-04T13:02:53;26.90;;;6.88;;
20982;SDS011;10650;51.528;6.748;2023-02-04T13:05:21;27.52;;;6.60;;
20982;SDS011;10650;51.528;6.748;2023-02-04T13:07:49;26.98;;;6.95;;
20982;SDS011;10650;51.528;6.748;2023-02-04T13:10:22;21.75;;;5.95;;
20982;SDS011;10650;51.528;6.748;2023-02-04T13:12:50;32.22;;;7.07;;
20982;SDS011;10650;51.528;6.748;2023-02-04T13:15:19;31.45;;;7.95;;
20982;SDS011;10650;51.528;6.748;2023-02-04T13:17:47;28.75;;;6.50;;
20982;SDS011;10650;51.528;6.748;2023-02-04T13:20:16;29.23;;;6.50;;
20982;SDS011;10650;51.528;6.748;2023-02-04T13:22:44;27.73;;;7.00;;
20982;SDS011;10650;51.528;6.748;2023-02-04T13:25:11;28.58;;;6.72;;
20982;SDS011;10650;51.528;6.748;2023-02-04T13:27:39;31.83;;;6.75;;
20982;SDS011;10650;51.528;6.748;2023-02-04T13:30:08;29.23;;;6.95;;
20982;SDS011;10650;51.528;6.748;2023-02-04T13:32:39;26.13;;;6.07;;
20982;SDS011;10650;51.528;6.748;2023-02-04T13:35:07;31.05;;;7.00;;
20982;SDS011;10650;51.528;6.748;2023-02-04T13:37:35;30.35;;;6.85;;
20982;SDS011;10650;51.528;6.748;2023-02-04T13:40:03;28.05;;;7.78;;
20982;SDS011;10650;51.528;6.748;2023-02-04T13:42:31;30.70;;;8.18;;
20982;SDS011;10650;51.528;6.748;2023-02-04T13:44:59;26.98;;;7.20;;
20982;SDS011;10650;51.528;6.748;2023-02-04T13:47:27;30.15;;;7.55;;
20982;SDS011;10650;51.528;6.748;2023-02-04T13:49:56;24.42;;;7.53;;
20982;SDS011;10650;51.528;6.748;2023-02-04T13:52:24;24.17;;;7.05;;
20982;SDS011;10650;51.528;6.748;2023-02-04T13:54:51;24.48;;;7.55;;
20982;SDS011;10650;51.528;6.748;2023-02-04T13:57:20;26.42;;;7.32;;
20982;SDS011;10650;51.528;6.748;2023-02-04T13:59:48;17.80;;;5.95;;
20982;SDS011;10650;51.528;6.748;2023-02-04T14:02:16;24.65;;;6.75;;
20982;SDS011;10650;51.528;6.748;2023-02-04T14:04:44;28.02;;;6.65;;
20982;SDS011;10650;51.528;6.748;2023-02-04T14:07:13;25.45;;;6.85;;
20982;SDS011;10650;51.528;6.748;2023-02-04T14:09:41;27.58;;;6.25;;
20982;SDS011;10650;51.528;6.748;2023-02-04T14:12:09;21.70;;;5.90;;
20982;SDS011;10650;51.528;6.748;2023-02-04T14:14:36;23.23;;;5.00;;
20982;SDS011;10650;51.528;6.748;2023-02-04T14:17:04;27.52;;;5.40;;
20982;SDS011;10650;51.528;6.748;2023-02-04T14:19:32;24.25;;;5.55;;
20982;SDS011;10650;51.528;6.748;2023-02-04T14:22:00;22.48;;;5.68;;
20982;SDS011;10650;51.528;6.748;2023-02-04T14:24:29;23.55;;;4.88;;
20982;SDS011;10650;51.528;6.748;2023-02-04T14:26:57;18.75;;;4.38;;
20982;SDS011;10650;51.528;6.748;2023-02-04T14:29:26;22.80;;;5.28;;
20982;SDS011;10650;51.528;6.748;2023-02-04T14:31:54;25.33;;;6.55;;
20982;SDS011;10650;51.528;6.748;2023-02-04T14:34:22;25.67;;;6.10;;
20982;SDS011;10650;51.528;6.748;2023-02-04T14:36:51;24.70;;;5.78;;
20982;SDS011;10650;51.528;6.748;2023-02-04T14:39:18;20.17;;;5.80;;
20982;SDS011;10650;51.528;6.748;2023-02-04T14:41:48;23.10;;;5.28;;